Time;durP1;ratioP1;P1;durP2;ratioP2;P2;SDS_P1;SDS_P2;PMS_P1;PMS_P2;Temp;Humidity;BMP_temperature;BMP_pressure;BME280_temperature;BME280_humidity;BME280_pressure;Samples;Min_cycle;Max_cycle;Signal;HPM_P1;HPM_P2
2022/08/03 00:01:51;;;;;;;27.60;18.25;;;15.30;99.90;;;;;;5033777;28;20021;-68
2022/08/03 00:04:16;;;;;;;27.05;18.92;;;15.30;99.90;;;;;;5034902;28;20049;-68
2022/08/03 00:06:42;;;;;;;25.20;18.05;;;15.30;99.90;;;;;;5034961;28;20469;-68
2022/08/03 00:09:08;;;;;;;23.67;17.33;;;15.20;99.90;;;;;;5034916;28;20062;-68
2022/08/03 00:11:34;;;;;;;24.55;17.48;;;15.20;99.90;;;;;;5034933;28;20022;-68
2022/08/03 00:14:00;;;;;;;26.27;17.30;;;15.20;99.90;;;;;;5034733;28;20060;-68
2022/08/03 00:16:25;;;;;;;25.35;18.05;;;15.20;99.90;;;;;;5034736;28;20056;-68
2022/08/03 00:18:51;;;;;;;23.02;18.75;;;15.30;99.90;;;;;;5034994;28;20021;-68
2022/08/03 00:21:17;;;;;;;28.90;21.20;;;15.30;99.90;;;;;;5034691;28;20019;-68
2022/08/03 00:23:43;;;;;;;31.52;22.00;;;15.40;99.90;;;;;;5034437;28;20102;-68
2022/08/03 00:26:09;;;;;;;30.45;20.80;;;15.40;99.90;;;;;;5034530;28;20079;-68
2022/08/03 00:28:34;;;;;;;27.88;19.42;;;15.50;99.90;;;;;;5034543;28;20544;-68
2022/08/03 00:31:00;;;;;;;33.85;22.13;;;15.50;99.90;;;;;;5034736;28;20028;-68
2022/08/03 00:33:25;;;;;;;30.52;22.80;;;15.50;99.90;;;;;;5034346;28;20091;-68
2022/08/03 00:35:51;;;;;;;38.60;23.92;;;15.60;99.90;;;;;;5034239;28;20500;-68
2022/08/03 00:38:17;;;;;;;44.38;26.73;;;15.60;99.90;;;;;;5034585;28;20386;-68
2022/08/03 00:40:43;;;;;;;35.85;25.05;;;15.70;99.90;;;;;;5034672;28;20095;-68
2022/08/03 00:43:09;;;;;;;44.30;27.83;;;15.70;99.90;;;;;;5034253;28;20475;-68
2022/08/03 00:45:37;;;;;;;43.13;27.15;;;15.70;99.90;;;;;;5034471;28;20021;-68
2022/08/03 00:48:05;;;;;;;38.03;25.35;;;15.60;99.90;;;;;;5034503;28;20037;-68
2022/08/03 00:50:34;;;;;;;34.22;24.65;;;15.70;99.90;;;;;;5033233;28;20030;-68
2022/08/03 00:53:02;;;;;;;37.17;22.77;;;15.70;99.90;;;;;;5034101;28;20021;-68
2022/08/03 00:55:27;;;;;;;30.50;21.88;;;15.60;99.90;;;;;;5033919;28;20112;-68
2022/08/03 00:57:54;;;;;;;33.17;21.02;;;15.60;99.90;;;;;;5034293;28;20104;-68
2022/08/03 01:00:22;;;;;;;34.60;24.23;;;15.70;99.90;;;;;;5034116;28;20067;-68
2022/08/03 01:02:49;;;;;;;32.75;23.02;;;15.70;99.90;;;;;;5033993;28;20022;-68
2022/08/03 01:05:14;;;;;;;29.00;20.85;;;15.70;99.90;;;;;;5034913;28;20032;-68
2022/08/03 01:08:01;;;;;;;29.35;22.98;;;15.70;99.90;;;;;;5033831;28;20025;-68
2022/08/03 01:10:51;;;;;;;35.47;24.27;;;15.80;99.90;;;;;;5033924;28;20382;-68
2022/08/03 01:13:28;;;;;;;39.03;24.73;;;15.80;99.90;;;;;;5033816;28;20033;-68
2022/08/03 01:15:54;;;;;;;37.75;27.30;;;15.90;99.90;;;;;;5034175;28;20462;-68
2022/08/03 01:18:38;;;;;;;42.65;24.80;;;16.00;99.90;;;;;;5033740;28;20028;-68
2022/08/03 01:21:19;;;;;;;32.63;24.85;;;16.10;99.90;;;;;;5034015;28;20077;-68
2022/08/03 01:24:04;;;;;;;32.55;21.58;;;16.10;99.90;;;;;;5033991;28;20039;-68
2022/08/03 01:26:52;;;;;;;41.22;27.25;;;16.20;99.90;;;;;;5034438;28;20482;-68
2022/08/03 01:29:32;;;;;;;45.97;28.05;;;16.20;99.90;;;;;;5017289;28;20039;-69
2022/08/03 01:32:07;;;;;;;40.97;26.55;;;16.20;99.90;;;;;;5014135;28;20107;-69
2022/08/03 01:34:37;;;;;;;28.10;22.33;;;16.20;99.90;;;;;;5014154;28;20037;-69
2022/08/03 01:37:06;;;;;;;32.13;24.75;;;16.20;99.90;;;;;;5013706;28;20029;-69
2022/08/03 01:39:34;;;;;;;36.13;27.00;;;16.20;99.90;;;;;;5014009;28;20100;-69
2022/08/03 01:42:05;;;;;;;36.00;25.95;;;16.20;99.90;;;;;;5019258;28;20029;-69
2022/08/03 01:44:35;;;;;;;37.60;26.20;;;16.30;99.90;;;;;;5014270;28;20089;-69
2022/08/03 01:47:02;;;;;;;51.35;32.17;;;16.30;99.90;;;;;;5033730;28;20029;-69
2022/08/03 01:49:31;;;;;;;35.15;24.45;;;16.30;99.90;;;;;;5033412;28;20025;-69
2022/08/03 01:51:58;;;;;;;39.97;26.65;;;16.30;99.90;;;;;;5033246;28;20505;-69
2022/08/03 01:54:25;;;;;;;32.30;24.05;;;16.40;99.90;;;;;;5033330;28;20440;-69
2022/08/03 01:56:55;;;;;;;33.03;22.90;;;16.50;99.90;;;;;;5033186;28;20029;-69
2022/08/03 01:59:22;;;;;;;31.85;23.33;;;16.50;99.90;;;;;;5033572;28;20044;-68
2022/08/03 02:01:49;;;;;;;30.08;23.30;;;16.50;99.90;;;;;;5034918;28;20017;-69
2022/08/03 02:04:18;;;;;;;31.48;22.88;;;16.50;99.90;;;;;;5037255;28;20020;-69
2022/08/03 02:06:46;;;;;;;43.78;28.13;;;16.50;99.90;;;;;;5037553;28;20381;-69
2022/08/03 02:09:13;;;;;;;38.40;28.33;;;16.50;99.90;;;;;;5037487;28;20026;-69
2022/08/03 02:11:41;;;;;;;43.72;27.02;;;16.50;99.90;;;;;;5037117;28;20508;-68
2022/08/03 02:14:08;;;;;;;43.25;29.70;;;16.50;99.90;;;;;;5037199;28;20115;-69
2022/08/03 02:16:34;;;;;;;37.55;27.98;;;16.50;99.90;;;;;;5036655;28;20026;-69
2022/08/03 02:19:03;;;;;;;40.75;27.88;;;16.50;99.90;;;;;;5036968;28;20036;-69
2022/08/03 02:21:32;;;;;;;49.45;29.33;;;16.50;99.90;;;;;;5036805;28;20029;-69
2022/08/03 02:23:58;;;;;;;41.70;27.88;;;16.40;99.90;;;;;;5037097;28;20033;-69
2022/08/03 02:26:28;;;;;;;35.67;27.40;;;16.50;99.90;;;;;;5037068;28;20028;-69
2022/08/03 02:28:55;;;;;;;31.50;24.92;;;16.50;99.90;;;;;;5036946;28;20025;-69
2022/08/03 02:31:25;;;;;;;45.97;28.38;;;16.50;99.90;;;;;;5036881;28;20091;-69
2022/08/03 02:33:53;;;;;;;42.13;29.08;;;16.50;99.90;;;;;;5036849;28;20124;-69
2022/08/03 02:36:24;;;;;;;44.22;31.00;;;16.50;99.90;;;;;;5036845;28;20033;-69
2022/08/03 02:38:54;;;;;;;46.28;32.42;;;16.50;99.90;;;;;;5036554;28;20117;-69
2022/08/03 02:41:23;;;;;;;49.67;31.95;;;16.50;99.90;;;;;;5036526;28;20075;-69
2022/08/03 02:43:53;;;;;;;49.70;30.65;;;16.50;99.90;;;;;;5034758;28;20033;-69
2022/08/03 02:46:22;;;;;;;42.53;30.88;;;16.60;99.90;;;;;;5035082;28;20034;-69
2022/08/03 02:48:51;;;;;;;41.53;31.80;;;16.60;99.90;;;;;;5036653;28;20036;-69
2022/08/03 02:51:19;;;;;;;43.47;32.45;;;16.60;99.90;;;;;;5036232;28;20159;-69
2022/08/03 02:53:45;;;;;;;41.45;28.58;;;16.60;99.90;;;;;;5036260;28;20025;-69
2022/08/03 02:56:12;;;;;;;43.28;28.13;;;16.60;99.90;;;;;;5026699;28;20492;-69
2022/08/03 02:58:40;;;;;;;38.35;28.27;;;16.60;99.90;;;;;;5029282;28;20385;-69
2022/08/03 03:01:06;;;;;;;46.03;31.52;;;16.60;99.90;;;;;;5036190;28;20037;-69
2022/08/03 03:03:34;;;;;;;51.13;30.25;;;16.50;99.90;;;;;;5036030;28;20021;-68
2022/08/03 03:06:01;;;;;;;51.97;30.15;;;16.50;99.90;;;;;;5036097;28;20032;-68
2022/08/03 03:08:27;;;;;;;48.13;32.80;;;16.50;99.90;;;;;;5032019;28;20036;-69
2022/08/03 03:10:54;;;;;;;44.95;29.50;;;16.50;99.90;;;;;;5016289;28;20025;-68
2022/08/03 03:13:22;;;;;;;49.50;32.15;;;16.50;99.90;;;;;;5015545;28;20056;-69
2022/08/03 03:15:48;;;;;;;48.03;30.05;;;16.50;99.90;;;;;;5035895;28;20036;-69
2022/08/03 03:18:15;;;;;;;42.38;29.02;;;16.50;99.90;;;;;;5017716;28;20029;-69
2022/08/03 03:20:41;;;;;;;44.88;30.50;;;16.50;99.90;;;;;;5016060;28;20033;-68
2022/08/03 03:23:08;;;;;;;51.95;31.23;;;16.50;99.90;;;;;;5015949;28;20026;-68
2022/08/03 03:25:35;;;;;;;55.33;33.78;;;16.50;99.90;;;;;;5031859;28;20392;-69
2022/08/03 03:28:01;;;;;;;43.80;29.90;;;16.50;99.90;;;;;;5036433;28;20409;-69
2022/08/03 03:30:27;;;;;;;48.95;32.25;;;16.50;99.90;;;;;;5035623;28;20024;-69
2022/08/03 03:32:53;;;;;;;52.30;32.58;;;16.50;99.90;;;;;;5035618;28;20021;-69
2022/08/03 03:35:19;;;;;;;42.88;29.60;;;16.50;99.90;;;;;;5017717;28;20068;-69
2022/08/03 03:37:45;;;;;;;54.97;32.00;;;16.50;99.90;;;;;;5035394;28;20072;-69
2022/08/03 03:40:11;;;;;;;44.75;30.98;;;16.50;99.90;;;;;;5035345;28;20017;-69
2022/08/03 03:42:37;;;;;;;46.13;29.00;;;16.50;99.90;;;;;;5035980;28;20033;-69
2022/08/03 03:45:06;;;;;;;42.50;26.05;;;16.50;99.90;;;;;;5035349;28;20018;-69
2022/08/03 03:47:35;;;;;;;39.83;28.50;;;16.60;99.90;;;;;;5035247;28;20108;-69
2022/08/03 03:50:02;;;;;;;40.72;26.00;;;16.60;99.90;;;;;;5035806;28;20489;-68
2022/08/03 03:52:28;;;;;;;44.42;27.40;;;16.50;99.90;;;;;;5036020;28;20025;-69
2022/08/03 03:54:54;;;;;;;38.40;23.15;;;16.60;99.90;;;;;;5035333;28;20500;-69
2022/08/03 03:57:19;;;;;;;37.35;26.45;;;16.60;99.90;;;;;;5035074;28;20032;-68
2022/08/03 03:59:45;;;;;;;48.67;25.48;;;16.70;99.90;;;;;;5035009;28;20093;-69
2022/08/03 04:02:11;;;;;;;44.67;25.00;;;16.80;99.90;;;;;;5035299;28;20025;-69
2022/08/03 04:13:09;;;;;;;45.30;25.33;;;17.00;99.90;;;;;;5034876;28;20032;-69
2022/08/03 04:15:40;;;;;;;39.83;23.67;;;17.10;99.90;;;;;;5034899;28;20024;-69
2022/08/03 04:18:08;;;;;;;45.13;23.80;;;17.20;99.90;;;;;;5034688;28;20025;-69
2022/08/03 04:20:37;;;;;;;36.60;22.05;;;17.30;99.90;;;;;;5034700;28;20025;-69
2022/08/03 04:23:04;;;;;;;31.05;20.75;;;17.30;99.90;;;;;;5034601;28;20386;-69
2022/08/03 04:25:33;;;;;;;43.92;21.63;;;17.30;99.90;;;;;;5034319;28;20035;-69
2022/08/03 04:28:00;;;;;;;37.53;21.15;;;17.40;99.90;;;;;;5034559;28;20029;-69
2022/08/03 04:30:28;;;;;;;37.53;21.13;;;17.50;99.90;;;;;;5034623;28;20060;-69
2022/08/03 04:32:58;;;;;;;37.80;21.52;;;17.50;99.90;;;;;;5034725;28;20060;-69
2022/08/03 04:35:26;;;;;;;34.10;19.25;;;17.60;99.90;;;;;;5034599;28;20026;-68
2022/08/03 04:37:55;;;;;;;34.42;18.33;;;17.70;99.90;;;;;;5034413;28;20461;-69
2022/08/03 04:40:26;;;;;;;44.35;18.23;;;17.70;99.90;;;;;;5034588;28;20088;-69
2022/08/03 04:42:54;;;;;;;35.88;18.15;;;17.80;99.90;;;;;;5034366;28;20049;-69
2022/08/03 04:45:20;;;;;;;40.40;18.00;;;17.90;99.90;;;;;;5034242;28;20028;-69
2022/08/03 04:47:46;;;;;;;39.53;17.83;;;17.90;99.90;;;;;;5034672;28;20108;-69
2022/08/03 04:50:12;;;;;;;29.42;17.58;;;18.00;99.90;;;;;;5034199;28;20495;-69
2022/08/03 04:52:38;;;;;;;33.70;16.27;;;18.10;99.90;;;;;;5034110;28;20052;-68
2022/08/03 04:55:04;;;;;;;36.85;16.17;;;18.10;99.90;;;;;;5033957;28;20466;-68
2022/08/03 04:57:29;;;;;;;23.85;15.00;;;18.20;99.90;;;;;;5033916;28;20033;-68
2022/08/03 04:59:55;;;;;;;31.23;15.05;;;18.20;99.90;;;;;;5034041;28;20017;-69
2022/08/03 05:02:21;;;;;;;28.05;15.73;;;18.30;99.90;;;;;;5033877;28;20021;-68
2022/08/03 05:04:47;;;;;;;28.65;16.33;;;18.30;99.90;;;;;;5033870;28;20020;-68
2022/08/03 05:07:13;;;;;;;27.40;14.98;;;18.40;99.90;;;;;;5033926;28;20079;-68
2022/08/03 05:09:39;;;;;;;38.63;15.93;;;18.30;99.90;;;;;;5033890;28;20045;-68
2022/08/03 05:12:05;;;;;;;32.50;14.70;;;18.40;99.90;;;;;;5034074;28;20021;-68
2022/08/03 05:14:37;;;;;;;30.77;14.82;;;18.40;99.90;;;;;;5033638;28;20513;-68
2022/08/03 05:17:06;;;;;;;28.15;14.20;;;18.40;99.90;;;;;;5033973;28;20533;-69
2022/08/03 05:19:31;;;;;;;22.08;13.93;;;18.50;99.90;;;;;;5034279;28;20034;-68
2022/08/03 05:21:57;;;;;;;30.30;15.35;;;18.50;99.90;;;;;;5034284;28;20033;-68
2022/08/03 05:24:23;;;;;;;26.02;13.07;;;18.50;99.90;;;;;;5033325;28;20034;-68
2022/08/03 05:26:48;;;;;;;20.67;14.02;;;18.60;99.90;;;;;;5033584;28;20068;-68
2022/08/03 05:29:14;;;;;;;35.83;14.07;;;18.70;99.90;;;;;;5033752;28;20030;-69
2022/08/03 05:31:39;;;;;;;22.75;12.95;;;18.70;99.90;;;;;;5033614;28;20025;-68
2022/08/03 05:34:05;;;;;;;22.27;12.30;;;18.80;99.90;;;;;;5033440;28;20061;-69
2022/08/03 05:36:31;;;;;;;31.65;13.25;;;18.90;99.90;;;;;;5032858;28;20036;-69
2022/08/03 05:38:56;;;;;;;25.10;11.32;;;18.90;99.90;;;;;;5033156;28;20018;-69
2022/08/03 05:41:22;;;;;;;20.88;10.90;;;19.00;99.90;;;;;;5033586;28;20036;-69
2022/08/03 05:43:48;;;;;;;28.73;11.63;;;19.00;99.90;;;;;;5033539;28;20022;-69
2022/08/03 05:46:13;;;;;;;23.52;11.93;;;19.10;99.90;;;;;;5033319;28;20025;-68
2022/08/03 05:48:40;;;;;;;28.60;13.07;;;19.20;99.90;;;;;;5033936;28;20032;-68
2022/08/03 05:51:09;;;;;;;15.35;10.05;;;19.20;99.90;;;;;;5033531;28;20040;-69
2022/08/03 05:53:36;;;;;;;22.15;10.25;;;19.20;99.90;;;;;;5033218;28;20018;-69
2022/08/03 05:56:02;;;;;;;26.42;10.68;;;19.30;99.90;;;;;;5033171;28;20100;-68
2022/08/03 05:58:28;;;;;;;18.20;8.93;;;19.40;99.90;;;;;;5033059;28;20382;-69
2022/08/03 06:00:53;;;;;;;17.80;10.50;;;19.50;99.90;;;;;;5033202;28;20017;-69
2022/08/03 06:03:19;;;;;;;23.10;11.68;;;19.50;99.90;;;;;;5033421;28;20080;-68
2022/08/03 06:05:45;;;;;;;23.52;9.55;;;19.70;99.90;;;;;;5033452;28;20374;-68
2022/08/03 06:08:10;;;;;;;21.35;9.20;;;20.00;99.90;;;;;;5033315;28;20061;-69
2022/08/03 06:10:36;;;;;;;16.73;8.10;;;20.20;99.90;;;;;;5033211;28;20021;-69
2022/08/03 06:13:01;;;;;;;17.23;8.38;;;20.40;99.90;;;;;;5034008;28;20061;-68
2022/08/03 06:15:27;;;;;;;12.57;7.40;;;20.70;99.90;;;;;;5033634;28;20032;-68
2022/08/03 06:17:52;;;;;;;14.70;6.20;;;20.90;99.90;;;;;;5033481;28;20120;-68
2022/08/03 06:20:19;;;;;;;12.35;6.03;;;20.90;99.90;;;;;;5033061;28;20026;-68
2022/08/03 06:22:46;;;;;;;18.17;6.13;;;21.10;99.90;;;;;;5033302;28;20026;-68
2022/08/03 06:25:12;;;;;;;14.27;7.18;;;21.20;99.90;;;;;;5032713;28;20087;-68
2022/08/03 06:27:39;;;;;;;12.68;5.70;;;21.30;99.90;;;;;;5033184;28;20025;-68
2022/08/03 06:30:09;;;;;;;18.92;6.85;;;21.40;99.90;;;;;;5033003;28;20029;-68
2022/08/03 06:32:38;;;;;;;13.52;5.43;;;21.50;99.90;;;;;;5033381;28;20033;-69
2022/08/03 06:35:08;;;;;;;18.45;6.78;;;21.60;99.90;;;;;;5032868;28;20104;-68
2022/08/03 06:38:00;;;;;;;15.35;5.85;;;21.60;99.90;;;;;;5032876;28;20075;-68
2022/08/03 06:40:30;;;;;;;14.77;4.97;;;21.70;99.90;;;;;;5029160;28;20486;-68
2022/08/03 06:43:00;;;;;;;12.73;5.13;;;21.70;99.90;;;;;;5032851;28;20085;-68
2022/08/03 06:45:27;;;;;;;16.15;4.97;;;21.70;99.90;;;;;;5033112;28;20037;-68
2022/08/03 06:48:00;;;;;;;11.48;4.63;;;21.80;99.90;;;;;;5032480;28;20021;-68
2022/08/03 06:50:26;;;;;;;9.05;5.80;;;21.80;99.90;;;;;;5036306;28;20053;-68
2022/08/03 06:52:52;;;;;;;12.45;5.72;;;21.70;99.90;;;;;;5036584;28;20381;-68
2022/08/03 06:55:17;;;;;;;16.70;6.47;;;21.70;99.90;;;;;;5036199;28;20030;-68
2022/08/03 06:57:43;;;;;;;16.20;6.18;;;21.80;99.90;;;;;;5018496;28;20029;-68
2022/08/03 07:00:10;;;;;;;21.60;6.55;;;21.70;99.90;;;;;;5036083;28;20022;-69
2022/08/03 07:02:36;;;;;;;16.10;5.25;;;21.80;99.90;;;;;;5036463;28;20025;-68
2022/08/03 07:05:02;;;;;;;18.00;5.80;;;21.80;99.90;;;;;;5036071;28;20020;-68
2022/08/03 07:07:28;;;;;;;19.23;6.30;;;21.70;99.90;;;;;;5036282;28;20030;-68
2022/08/03 07:09:53;;;;;;;16.00;5.00;;;21.70;99.90;;;;;;5036286;28;20528;-68
2022/08/03 07:12:19;;;;;;;19.08;4.82;;;21.90;99.90;;;;;;5036196;28;20037;-68
2022/08/03 07:14:44;;;;;;;14.27;4.20;;;22.10;99.90;;;;;;5036139;28;20030;-68
2022/08/03 07:17:10;;;;;;;17.92;4.10;;;22.20;99.90;;;;;;5035935;28;20034;-68
2022/08/03 07:19:35;;;;;;;8.15;3.97;;;22.30;99.90;;;;;;5036025;28;20103;-68
2022/08/03 07:22:02;;;;;;;19.33;4.15;;;22.20;99.90;;;;;;5035762;28;20072;-68
2022/08/03 07:24:28;;;;;;;19.92;4.03;;;22.30;99.90;;;;;;5059279;22;20046;-69
2022/08/03 07:26:55;;;;;;;13.00;4.07;;;22.50;99.90;;;;;;5035713;28;20078;-68
2022/08/03 07:29:20;;;;;;;13.60;3.92;;;22.70;99.90;;;;;;5035470;28;20069;-69
2022/08/03 07:31:46;;;;;;;12.93;3.63;;;22.70;99.90;;;;;;5035513;28;20049;-69
2022/08/03 07:34:11;;;;;;;11.65;4.05;;;22.80;99.90;;;;;;5035436;28;20068;-69
2022/08/03 07:36:37;;;;;;;12.60;3.75;;;22.90;99.90;;;;;;5035340;28;20033;-69
2022/08/03 07:39:03;;;;;;;9.35;2.92;;;23.00;99.90;;;;;;5035366;28;20052;-69
2022/08/03 07:41:29;;;;;;;12.13;2.67;;;22.90;99.90;;;;;;5035856;28;20056;-69
2022/08/03 07:43:54;;;;;;;8.77;3.22;;;22.90;99.90;;;;;;5035467;28;20428;-69
2022/08/03 07:46:20;;;;;;;23.55;3.92;;;23.10;99.90;;;;;;5035166;28;20052;-69
2022/08/03 07:48:45;;;;;;;11.20;3.25;;;23.20;99.90;;;;;;5035047;28;20037;-69
2022/08/03 07:51:11;;;;;;;12.40;3.13;;;23.20;99.90;;;;;;5035125;28;20025;-69
2022/08/03 07:53:36;;;;;;;17.02;3.88;;;23.20;99.90;;;;;;5035122;28;20469;-69
2022/08/03 07:56:02;;;;;;;11.05;3.45;;;23.10;99.90;;;;;;5035100;28;20092;-69
2022/08/03 07:58:27;;;;;;;18.50;4.22;;;23.20;99.90;;;;;;5034861;28;20075;-69
2022/08/03 08:00:53;;;;;;;16.33;3.72;;;23.20;99.90;;;;;;5034603;28;20083;-69
2022/08/03 08:03:20;;;;;;;18.60;4.15;;;23.20;99.90;;;;;;5035490;28;20022;-69
2022/08/03 08:05:46;;;;;;;12.63;3.22;;;23.20;99.90;;;;;;5035061;28;20462;-69
2022/08/03 08:08:12;;;;;;;15.07;3.60;;;23.40;99.90;;;;;;5034910;28;20036;-69
2022/08/03 08:10:37;;;;;;;14.18;3.45;;;23.50;99.90;;;;;;5034828;28;20034;-69
2022/08/03 08:13:03;;;;;;;17.70;3.42;;;23.60;99.90;;;;;;5034791;28;20045;-69
2022/08/03 08:15:30;;;;;;;20.05;2.70;;;23.70;99.90;;;;;;5034810;28;20029;-69
2022/08/03 08:17:57;;;;;;;12.75;3.25;;;23.70;99.90;;;;;;5034647;28;20017;-69
2022/08/03 08:20:26;;;;;;;15.35;3.65;;;23.60;99.90;;;;;;5034658;28;20014;-69
2022/08/03 08:22:51;;;;;;;10.80;3.05;;;23.80;99.90;;;;;;5034412;28;20064;-69
2022/08/03 08:25:17;;;;;;;24.73;4.72;;;23.90;99.90;;;;;;5034384;28;20061;-69
2022/08/03 08:27:45;;;;;;;13.57;3.90;;;23.90;99.90;;;;;;5034430;28;20033;-69
2022/08/03 08:30:12;;;;;;;15.85;3.50;;;23.80;99.90;;;;;;5034445;28;20366;-69
2022/08/03 08:32:37;;;;;;;15.98;4.03;;;23.90;99.90;;;;;;5034420;28;20378;-69
2022/08/03 08:35:04;;;;;;;17.63;4.60;;;24.00;99.90;;;;;;5034346;28;20104;-69
2022/08/03 08:37:30;;;;;;;20.02;3.72;;;24.20;99.90;;;;;;5034471;28;20065;-69
2022/08/03 08:39:56;;;;;;;15.80;4.43;;;24.20;99.90;;;;;;5034117;28;20022;-69
2022/08/03 08:42:22;;;;;;;13.18;3.90;;;24.20;99.90;;;;;;5034241;28;20025;-69
2022/08/03 08:44:47;;;;;;;14.23;3.97;;;24.20;99.90;;;;;;5034080;28;20055;-69
2022/08/03 08:47:14;;;;;;;23.30;4.63;;;24.10;99.90;;;;;;5034387;28;20066;-69
2022/08/03 08:49:40;;;;;;;20.13;5.20;;;24.30;99.90;;;;;;5034253;28;20040;-69
2022/08/03 08:52:07;;;;;;;16.05;4.30;;;24.40;99.90;;;;;;5016320;28;20032;-69
2022/08/03 08:54:35;;;;;;;20.30;4.25;;;24.50;99.90;;;;;;5033702;28;20389;-69
2022/08/03 08:57:03;;;;;;;31.67;4.40;;;24.60;99.90;;;;;;5034129;28;20056;-69
2022/08/03 08:59:35;;;;;;;14.52;4.13;;;24.60;99.90;;;;;;5033909;28;20021;-69
2022/08/03 09:02:01;;;;;;;23.38;5.10;;;24.50;99.90;;;;;;5033936;28;20048;-69
2022/08/03 09:04:28;;;;;;;17.73;5.07;;;24.50;99.90;;;;;;5033670;28;20054;-69
2022/08/03 09:06:54;;;;;;;19.15;4.65;;;24.70;99.90;;;;;;5033413;28;20029;-69
2022/08/03 09:09:19;;;;;;;15.70;4.75;;;24.80;99.90;;;;;;5033722;28;20083;-69
2022/08/03 09:11:47;;;;;;;9.85;3.97;;;24.70;99.90;;;;;;5032994;28;20033;-69
2022/08/03 09:14:13;;;;;;;21.08;4.90;;;24.70;99.90;;;;;;5033852;28;20109;-69
2022/08/03 09:16:55;;;;;;;23.95;4.82;;;24.60;99.90;;;;;;5033842;28;20109;-69
2022/08/03 09:19:21;;;;;;;14.57;4.63;;;24.90;99.90;;;;;;5033666;28;20017;-69
2022/08/03 09:22:06;;;;;;;23.77;5.00;;;25.10;99.90;;;;;;5033892;28;20417;-69
2022/08/03 09:24:32;;;;;;;19.00;5.20;;;25.00;99.90;;;;;;5033859;28;20108;-69
2022/08/03 09:26:57;;;;;;;24.52;5.15;;;24.90;99.90;;;;;;5033510;28;20049;-69
2022/08/03 09:29:24;;;;;;;19.98;6.45;;;24.90;99.90;;;;;;5033527;28;20029;-70
2022/08/03 09:32:00;;;;;;;21.13;6.18;;;25.00;99.90;;;;;;5033604;28;20041;-69
2022/08/03 09:34:27;;;;;;;24.25;6.30;;;25.40;99.90;;;;;;5033700;28;20021;-69
2022/08/03 09:36:53;;;;;;;29.10;5.85;;;25.20;99.90;;;;;;5033326;28;20384;-69
2022/08/03 09:39:21;;;;;;;21.17;6.43;;;25.30;99.90;;;;;;5033684;28;20026;-70
2022/08/03 09:42:02;;;;;;;20.50;5.85;;;25.10;99.90;;;;;;5033458;28;20104;-70
2022/08/03 09:44:48;;;;;;;29.08;6.68;;;25.20;99.90;;;;;;5033497;28;20079;-69
2022/08/03 09:47:26;;;;;;;25.90;5.57;;;25.40;99.90;;;;;;5033255;28;20026;-69
2022/08/03 09:50:08;;;;;;;20.48;5.53;;;25.30;99.90;;;;;;5033260;28;20540;-69
2022/08/03 09:52:36;;;;;;;21.65;6.97;;;25.10;99.90;;;;;;5033386;28;20087;-70
2022/08/03 09:55:09;;;;;;;25.05;5.93;;;25.10;99.90;;;;;;5032996;28;20034;-70
2022/08/03 09:57:35;;;;;;;20.33;6.30;;;25.00;99.90;;;;;;5033442;28;20027;-70
2022/08/03 10:00:12;;;;;;;24.63;7.07;;;24.90;99.90;;;;;;5033457;28;20021;-68
2022/08/03 10:02:39;;;;;;;24.63;6.05;;;25.00;99.90;;;;;;5033156;28;20478;-67
2022/08/03 10:05:07;;;;;;;26.02;7.03;;;25.00;99.90;;;;;;5032955;28;20018;-67
2022/08/03 10:07:48;;;;;;;23.80;5.57;;;25.30;99.90;;;;;;5033411;28;20057;-67
2022/08/03 10:10:15;;;;;;;22.15;6.10;;;25.40;99.90;;;;;;5033380;28;20022;-67
2022/08/03 10:12:42;;;;;;;24.70;5.22;;;25.40;99.90;;;;;;5033030;28;20026;-67
2022/08/03 10:15:09;;;;;;;21.17;6.60;;;25.40;99.90;;;;;;5033006;28;20488;-67
2022/08/03 10:17:35;;;;;;;21.90;5.70;;;25.20;99.90;;;;;;5032976;28;20053;-67
2022/08/03 10:20:02;;;;;;;21.55;4.70;;;25.20;99.90;;;;;;5033247;28;20097;-67
2022/08/03 10:22:32;;;;;;;21.23;6.03;;;25.30;99.90;;;;;;5033902;28;20091;-68
2022/08/03 10:24:59;;;;;;;19.27;5.03;;;25.60;99.90;;;;;;5036757;28;20029;-68
2022/08/03 10:27:30;;;;;;;17.15;5.30;;;25.90;99.90;;;;;;5036960;28;20500;-68
2022/08/03 10:30:02;;;;;;;20.02;6.60;;;26.00;99.90;;;;;;5037065;28;20377;-68
2022/08/03 10:32:32;;;;;;;19.50;6.63;;;26.20;99.90;;;;;;5037006;28;20167;-68
2022/08/03 10:35:11;;;;;;;19.40;5.55;;;25.90;99.90;;;;;;5036351;28;20020;-68
2022/08/03 10:37:42;;;;;;;27.15;6.32;;;25.60;99.90;;;;;;5036683;28;20033;-67
2022/08/03 10:40:13;;;;;;;31.10;6.68;;;25.70;99.90;;;;;;5036507;28;20053;-68
2022/08/03 10:42:41;;;;;;;24.33;5.80;;;25.60;99.90;;;;;;5036799;28;20385;-68
2022/08/03 10:45:19;;;;;;;15.70;5.65;;;25.40;99.90;;;;;;5036412;28;20056;-68
2022/08/03 10:47:47;;;;;;;20.13;5.35;;;25.60;99.90;;;;;;5036701;28;20033;-68
2022/08/03 10:50:13;;;;;;;18.13;5.90;;;25.60;99.90;;;;;;5036768;28;20117;-68
2022/08/03 10:52:57;;;;;;;15.98;5.75;;;25.60;99.90;;;;;;5036361;28;20108;-68
2022/08/03 10:58:36;;;;;;;25.40;6.10;;;25.90;99.90;;;;;;5036283;28;20037;-68
2022/08/03 11:01:06;;;;;;;26.60;6.18;;;25.90;99.90;;;;;;5036446;28;20025;-67
2022/08/03 11:03:32;;;;;;;24.45;5.60;;;25.60;99.90;;;;;;5036359;28;20109;-67
2022/08/03 11:06:27;;;;;;;21.85;6.05;;;25.90;99.90;;;;;;5036034;28;20097;-68
2022/08/03 11:09:11;;;;;;;19.25;5.97;;;26.20;99.90;;;;;;5015289;28;20045;-68
2022/08/03 11:11:42;;;;;;;16.52;5.00;;;26.40;99.90;;;;;;5036181;28;20100;-68
2022/08/03 11:14:20;;;;;;;22.25;5.25;;;26.40;99.90;;;;;;5036166;28;20033;-68
2022/08/03 11:16:48;;;;;;;21.98;5.43;;;26.40;99.90;;;;;;5035633;28;20018;-68
2022/08/03 11:19:21;;;;;;;17.10;4.60;;;26.40;99.90;;;;;;5036212;28;20030;-68
2022/08/03 11:21:49;;;;;;;30.15;5.85;;;26.40;99.90;;;;;;5036101;28;20040;-68
2022/08/03 11:24:38;;;;;;;21.58;6.18;;;26.20;99.90;;;;;;5035526;28;20041;-68
2022/08/03 11:27:32;;;;;;;27.55;6.18;;;26.00;99.90;;;;;;5035926;28;20105;-68
2022/08/03 11:29:59;;;;;;;27.58;6.55;;;26.10;99.90;;;;;;5035883;28;20029;-68
2022/08/03 11:32:37;;;;;;;20.35;6.47;;;26.30;99.90;;;;;;5035603;28;20057;-68
2022/08/03 11:35:19;;;;;;;21.63;5.35;;;26.40;99.90;;;;;;5034968;28;20033;-68
2022/08/03 11:37:57;;;;;;;21.50;5.20;;;26.60;99.90;;;;;;5035703;28;20100;-67
2022/08/03 11:40:51;;;;;;;21.33;6.03;;;26.70;99.90;;;;;;5035410;28;20377;-67
2022/08/03 11:43:29;;;;;;;24.52;5.53;;;26.80;99.90;;;;;;5035378;28;20018;-67
2022/08/03 11:46:06;;;;;;;19.13;5.88;;;26.70;99.90;;;;;;5035587;28;20052;-67
2022/08/03 11:48:41;;;;;;;14.52;6.63;;;26.70;99.90;;;;;;5035576;28;20052;-67
2022/08/03 11:51:25;;;;;;;26.63;6.65;;;27.10;99.90;;;;;;5035961;28;20026;-67
2022/08/03 11:53:55;;;;;;;24.83;5.30;;;27.00;99.90;;;;;;5035190;28;20025;-67
2022/08/03 11:56:21;;;;;;;16.02;4.97;;;26.80;99.90;;;;;;5035378;28;20068;-67
2022/08/03 11:58:48;;;;;;;20.45;5.50;;;26.60;99.90;;;;;;5035090;28;20026;-67
2022/08/03 12:01:15;;;;;;;23.83;7.10;;;27.00;99.90;;;;;;5035070;28;20466;-67
2022/08/03 12:03:42;;;;;;;22.55;5.72;;;27.10;99.90;;;;;;5034944;28;20021;-67
2022/08/03 12:06:12;;;;;;;20.92;5.65;;;27.20;99.90;;;;;;5035233;28;20022;-67
2022/08/03 12:08:38;;;;;;;31.80;6.22;;;27.20;99.90;;;;;;5035034;28;20496;-68
2022/08/03 12:11:06;;;;;;;18.60;4.50;;;27.20;99.90;;;;;;5034784;28;20029;-67
2022/08/03 12:13:44;;;;;;;18.45;5.25;;;27.40;99.90;;;;;;5035013;28;20026;-68
2022/08/03 12:16:15;;;;;;;21.65;5.05;;;27.80;99.90;;;;;;5034761;28;20514;-67
2022/08/03 12:18:41;;;;;;;21.60;6.07;;;27.60;99.90;;;;;;5035265;28;20030;-67
2022/08/03 12:21:09;;;;;;;20.08;5.75;;;27.60;99.90;;;;;;5034634;28;20386;-67
2022/08/03 12:23:35;;;;;;;20.45;5.80;;;27.60;99.90;;;;;;5034730;28;20056;-68
2022/08/03 12:26:07;;;;;;;22.15;5.68;;;28.00;99.90;;;;;;5034597;28;20040;-68
2022/08/03 12:28:34;;;;;;;18.75;5.55;;;28.10;99.90;;;;;;5034819;28;20032;-67
2022/08/03 12:31:05;;;;;;;24.92;4.90;;;28.10;99.90;;;;;;5034757;28;20029;-67
2022/08/03 12:33:31;;;;;;;19.77;5.47;;;28.50;99.90;;;;;;5034963;28;20355;-68
2022/08/03 12:36:07;;;;;;;12.73;4.65;;;29.00;99.90;;;;;;5034371;28;20049;-67
2022/08/03 12:38:35;;;;;;;19.02;4.55;;;28.80;99.90;;;;;;5034852;28;20021;-67
2022/08/03 12:41:15;;;;;;;13.40;4.30;;;28.20;99.90;;;;;;5034515;28;20030;-67
2022/08/03 12:43:50;;;;;;;13.52;3.35;;;28.40;99.90;;;;;;5034203;28;20025;-68
2022/08/03 12:46:18;;;;;;;14.90;3.78;;;28.60;99.90;;;;;;5033159;28;20022;-68
2022/08/03 12:49:00;;;;;;;16.55;4.60;;;28.60;99.90;;;;;;5029969;28;20030;-67
2022/08/03 12:51:28;;;;;;;13.13;3.33;;;28.50;99.90;;;;;;5030952;28;20024;-68
2022/08/03 12:53:55;;;;;;;17.15;3.65;;;28.70;99.90;;;;;;5014266;28;20026;-68